createdAt,value
2022-10-11T00:02:26.360Z,7.62
2022-10-11T00:04:54.060Z,7.55
2022-10-11T00:07:23.184Z,7.53
2022-10-11T00:09:50.586Z,7.62
2022-10-11T00:12:18.055Z,7.58
2022-10-11T00:14:45.456Z,7.51
2022-10-11T00:17:12.913Z,7.50
2022-10-11T00:19:40.684Z,7.44
2022-10-11T00:22:08.292Z,7.42
2022-10-11T00:24:37.097Z,7.39
2022-10-11T00:27:04.568Z,7.36
2022-10-11T00:29:32.000Z,7.35
2022-10-11T00:31:59.419Z,7.33
2022-10-11T00:34:26.926Z,7.29
2022-10-11T00:36:54.566Z,7.33
2022-10-11T00:39:22.000Z,7.29
2022-10-11T00:41:50.812Z,7.21
2022-10-11T00:44:19.999Z,7.18
2022-10-11T00:46:55.038Z,7.22
2022-10-11T00:49:26.698Z,7.24
2022-10-11T00:51:55.980Z,7.24
2022-10-11T00:54:25.251Z,7.22
2022-10-11T00:56:57.207Z,7.21
2022-10-11T00:59:26.188Z,7.21
2022-10-11T01:01:54.098Z,6.73
2022-10-11T01:04:21.534Z,7.24
2022-10-11T01:06:50.394Z,7.22
2022-10-11T01:09:18.667Z,7.21
2022-10-11T01:11:48.115Z,7.21
2022-10-11T01:14:35.225Z,7.16
2022-10-11T01:17:06.672Z,7.17
2022-10-11T01:19:45.606Z,7.11
2022-10-11T01:22:22.650Z,7.09
2022-10-11T01:24:59.004Z,7.06
2022-10-11T01:27:44.051Z,7.16
2022-10-11T01:30:26.901Z,7.11
2022-10-11T01:33:00.810Z,7.07
2022-10-11T01:35:31.617Z,7.05
2022-10-11T01:38:02.675Z,7.03
2022-10-11T01:40:34.335Z,7.02
2022-10-11T01:43:02.891Z,7.07
2022-10-11T01:45:35.018Z,7.07
2022-10-11T01:48:03.550Z,7.08
2022-10-11T01:50:34.229Z,7.03
2022-10-11T01:53:07.084Z,6.94
2022-10-11T01:55:38.945Z,6.90
2022-10-11T01:58:11.244Z,6.93
2022-10-11T02:00:46.300Z,6.96
2022-10-11T02:03:20.405Z,6.94
2022-10-11T02:05:50.652Z,6.95
2022-10-11T02:08:21.897Z,6.93
2022-10-11T02:10:50.796Z,6.90
2022-10-11T02:13:20.920Z,6.85
2022-10-11T02:15:50.517Z,6.81
2022-10-11T02:18:20.542Z,6.85
2022-10-11T02:20:48.791Z,6.87
2022-10-11T02:23:21.405Z,6.89
2022-10-11T02:25:49.179Z,6.84
2022-10-11T02:28:19.655Z,6.87
2022-10-11T02:30:48.952Z,6.83
2022-10-11T02:33:19.526Z,6.81
2022-10-11T02:35:49.073Z,6.77
2022-10-11T02:38:19.179Z,6.75
2022-10-11T02:40:48.634Z,6.76
2022-10-11T02:43:19.340Z,6.76
2022-10-11T02:45:50.068Z,6.72
2022-10-11T02:48:19.709Z,6.69
2022-10-11T02:50:47.365Z,6.67
2022-10-11T02:53:14.959Z,6.66
2022-10-11T02:55:42.402Z,6.54
2022-10-11T02:58:09.896Z,6.54
2022-10-11T03:00:37.325Z,6.59
2022-10-11T03:03:05.265Z,6.59
2022-10-11T03:05:40.346Z,6.59
2022-10-11T03:08:08.028Z,6.57
2022-10-11T03:10:35.689Z,6.40
2022-10-11T03:13:03.314Z,6.43
2022-10-11T03:15:30.949Z,6.46
2022-10-11T03:17:58.542Z,6.47
2022-10-11T03:20:26.167Z,6.45
2022-10-11T03:22:55.054Z,6.38
2022-10-11T03:25:22.501Z,6.24
2022-10-11T03:27:50.228Z,6.19
2022-10-11T03:30:18.461Z,6.22
2022-10-11T03:32:46.349Z,6.24
2022-10-11T03:35:13.772Z,6.28
2022-10-11T03:37:41.357Z,6.30
2022-10-11T03:40:11.057Z,6.31
2022-10-11T03:42:38.759Z,6.20
2022-10-11T03:45:08.252Z,6.15
2022-10-11T03:47:35.760Z,6.15
2022-10-11T03:50:03.238Z,6.14
2022-10-11T03:52:30.835Z,6.01
2022-10-11T03:54:58.407Z,5.75
2022-10-11T03:57:27.546Z,5.56
2022-10-11T03:59:55.087Z,5.21
2022-10-11T04:02:22.534Z,5.76
2022-10-11T04:04:50.154Z,5.84
2022-10-11T04:07:17.647Z,5.91
2022-10-11T04:09:45.148Z,5.93
2022-10-11T04:12:12.736Z,5.99
2022-10-11T04:14:41.661Z,5.94
2022-10-11T04:17:09.291Z,5.89
2022-10-11T04:19:37.257Z,5.55
2022-10-11T04:22:05.116Z,5.58
2022-10-11T04:24:32.618Z,5.48
2022-10-11T04:27:00.376Z,5.53
2022-10-11T04:29:32.299Z,5.57
2022-10-11T04:32:01.625Z,5.48
2022-10-11T04:34:29.071Z,5.53
2022-10-11T04:36:56.565Z,5.54
2022-10-11T04:39:24.004Z,5.77
2022-10-11T04:41:51.495Z,5.74
2022-10-11T04:44:19.223Z,5.71
2022-10-11T04:46:46.647Z,5.73
2022-10-11T04:49:15.477Z,5.70
2022-10-11T04:51:42.948Z,5.65
2022-10-11T04:54:10.372Z,5.45
2022-10-11T04:56:37.798Z,5.30
2022-10-11T04:59:05.284Z,5.25
2022-10-11T05:01:32.829Z,5.28
2022-10-11T05:04:00.439Z,5.19
2022-10-11T05:06:29.237Z,5.31
2022-10-11T05:08:56.785Z,5.45
2022-10-11T05:11:24.265Z,5.50
2022-10-11T05:13:51.895Z,5.51
2022-10-11T05:16:19.334Z,5.50
2022-10-11T05:18:46.806Z,5.49
2022-10-11T05:21:17.170Z,5.51
2022-10-11T05:23:47.017Z,5.47
2022-10-11T05:26:14.535Z,5.47
2022-10-11T05:28:42.321Z,5.38
2022-10-11T05:31:10.092Z,5.40
2022-10-11T05:33:37.988Z,5.36
2022-10-11T05:36:06.591Z,5.34
2022-10-11T05:38:34.474Z,5.32
2022-10-11T05:41:03.752Z,5.38
2022-10-11T05:43:31.504Z,5.45
2022-10-11T05:45:59.966Z,5.45
2022-10-11T05:48:28.504Z,5.45
2022-10-11T05:50:59.686Z,5.45
2022-10-11T05:53:27.283Z,5.32
2022-10-11T05:55:54.824Z,5.40
2022-10-11T05:58:23.581Z,5.44
2022-10-11T06:00:51.095Z,5.48
2022-10-11T06:03:19.794Z,5.51
2022-10-11T06:05:47.363Z,5.48
2022-10-11T06:08:16.557Z,5.40
2022-10-11T06:10:44.740Z,5.43
2022-10-11T06:13:12.171Z,4.87
2022-10-11T06:15:41.697Z,5.48
2022-10-11T06:18:09.149Z,5.53
2022-10-11T06:20:37.621Z,5.54
2022-10-11T06:23:06.225Z,5.54
2022-10-11T06:25:33.680Z,5.49
2022-10-11T06:28:01.128Z,5.57
2022-10-11T06:30:28.796Z,5.64
2022-10-11T06:33:00.054Z,5.28
2022-10-11T06:35:31.298Z,5.29
2022-10-11T06:37:58.710Z,5.84
2022-10-11T06:40:42.092Z,5.88
2022-10-11T06:43:09.669Z,5.87
2022-10-11T06:45:37.122Z,5.81
2022-10-11T06:48:06.597Z,5.84
2022-10-11T06:50:57.881Z,5.95
2022-10-11T06:53:21.894Z,6.04
2022-10-11T06:55:49.548Z,6.12
2022-10-11T06:58:17.087Z,6.30
2022-10-11T07:00:44.579Z,6.43
2022-10-11T07:03:13.401Z,6.61
2022-10-11T07:05:40.871Z,6.77
2022-10-11T07:08:08.312Z,6.93
2022-10-11T07:10:36.484Z,7.03
2022-10-11T07:13:03.943Z,7.17
2022-10-11T07:15:31.739Z,7.34
2022-10-11T07:17:59.167Z,7.51
2022-10-11T07:20:27.967Z,7.43
2022-10-11T07:22:55.448Z,7.38
2022-10-11T07:25:22.856Z,7.62
2022-10-11T07:27:50.365Z,7.72
2022-10-11T07:30:17.862Z,7.86
2022-10-11T07:32:45.311Z,7.95
2022-10-11T07:35:12.733Z,8.02
2022-10-11T07:37:41.912Z,8.05
2022-10-11T07:40:11.234Z,8.14
2022-10-11T07:42:38.976Z,8.13
2022-10-11T07:45:06.836Z,8.06
2022-10-11T07:47:34.317Z,8.17
2022-10-11T07:50:01.748Z,8.23
2022-10-11T07:52:29.196Z,8.04
2022-10-11T07:54:58.143Z,8.05
2022-10-11T07:57:25.645Z,8.15
2022-10-11T07:59:53.113Z,8.12
2022-10-11T08:02:20.702Z,8.13
2022-10-11T08:04:48.114Z,8.55
2022-10-11T08:07:15.761Z,8.68
2022-10-11T08:09:43.247Z,8.70
2022-10-11T08:12:12.134Z,8.72
2022-10-11T08:14:41.420Z,8.82
2022-10-11T08:17:09.088Z,8.93
2022-10-11T08:19:36.573Z,9.04
2022-10-11T08:22:04.111Z,9.16
2022-10-11T08:24:35.869Z,9.25
2022-10-11T08:27:05.685Z,9.39
2022-10-11T08:29:34.702Z,9.39
2022-10-11T08:32:02.165Z,9.53
2022-10-11T08:34:29.720Z,9.60
2022-10-11T08:36:57.246Z,9.72
2022-10-11T08:39:24.738Z,9.86
2022-10-11T08:41:54.205Z,9.85
2022-10-11T08:44:46.166Z,9.94
2022-10-11T08:47:22.254Z,10.10
2022-10-11T08:49:51.223Z,10.24
2022-10-11T08:52:22.200Z,10.45
2022-10-11T08:54:54.239Z,10.54
2022-10-11T08:57:23.131Z,10.68
2022-10-11T08:59:52.247Z,10.84
2022-10-11T09:02:49.252Z,11.02
2022-10-11T09:05:20.553Z,11.33
2022-10-11T09:07:52.579Z,11.53
2022-10-11T09:10:50.002Z,11.60
2022-10-11T09:13:31.132Z,11.91
2022-10-11T09:16:04.210Z,11.99
2022-10-11T09:18:42.680Z,12.04
2022-10-11T09:21:15.184Z,12.09
2022-10-11T09:23:52.339Z,12.22
2022-10-11T09:26:24.628Z,12.25
2022-10-11T09:29:00.928Z,12.50
2022-10-11T09:31:29.094Z,12.61
2022-10-11T09:34:00.078Z,12.69
2022-10-11T09:36:30.282Z,12.82
2022-10-11T09:39:06.513Z,13.03
2022-10-11T09:41:37.352Z,13.04
2022-10-11T09:44:07.623Z,12.51
2022-10-11T09:46:36.946Z,13.04
2022-10-11T09:49:09.146Z,13.09
2022-10-11T09:51:37.708Z,13.22
2022-10-11T09:54:06.310Z,13.12
2022-10-11T09:56:35.069Z,13.07
2022-10-11T09:59:09.860Z,13.02
2022-10-11T10:01:37.383Z,13.25
2022-10-11T10:04:09.171Z,13.34
2022-10-11T10:06:36.816Z,13.23
2022-10-11T10:09:20.868Z,13.16
2022-10-11T10:11:50.861Z,13.44
2022-10-11T10:14:21.322Z,13.53
2022-10-11T10:16:48.975Z,13.53
2022-10-11T10:19:21.353Z,13.19
2022-10-11T10:21:50.451Z,13.63
2022-10-11T10:24:19.796Z,13.59
2022-10-11T10:27:06.448Z,13.61
2022-10-11T10:29:34.008Z,13.65
2022-10-11T10:32:14.176Z,13.80
2022-10-11T10:34:51.815Z,13.93
2022-10-11T10:37:23.735Z,14.11
2022-10-11T10:39:55.179Z,14.12
2022-10-11T10:42:22.873Z,14.31
2022-10-11T10:44:53.147Z,14.29
2022-10-11T10:47:29.113Z,14.68
2022-10-11T10:49:59.133Z,14.87
2022-10-11T10:52:47.867Z,15.09
2022-10-11T10:55:21.054Z,15.01
2022-10-11T10:57:53.797Z,15.26
2022-10-11T11:00:22.171Z,15.25
2022-10-11T11:02:53.624Z,15.16
2022-10-11T11:05:27.151Z,15.07
2022-10-11T11:07:58.558Z,15.04
2022-10-11T11:10:31.450Z,15.32
2022-10-11T11:13:08.868Z,15.35
2022-10-11T11:15:41.902Z,15.49
2022-10-11T11:18:20.551Z,15.50
2022-10-11T11:20:56.039Z,15.40
2022-10-11T11:23:28.851Z,15.31
2022-10-11T11:26:01.241Z,15.54
2022-10-11T11:28:43.065Z,15.55
2022-10-11T11:31:15.959Z,15.94
2022-10-11T11:33:50.989Z,16.29
2022-10-11T11:36:25.954Z,16.78
2022-10-11T11:38:56.526Z,16.83
2022-10-11T11:41:26.542Z,17.20
2022-10-11T11:43:59.317Z,17.00
2022-10-11T11:46:28.463Z,16.56
2022-10-11T11:48:58.151Z,16.98
2022-10-11T11:51:31.424Z,16.91
2022-10-11T11:54:06.083Z,17.31
2022-10-11T11:56:43.195Z,17.22
2022-10-11T11:59:15.439Z,16.93
2022-10-11T12:01:45.730Z,17.08
2022-10-11T12:04:16.928Z,17.82
2022-10-11T12:07:11.083Z,18.52
2022-10-11T12:09:35.367Z,19.07
2022-10-11T12:12:05.032Z,19.08
2022-10-11T12:14:37.860Z,18.83
2022-10-11T12:17:16.722Z,18.37
2022-10-11T12:19:58.889Z,18.06
2022-10-11T12:22:40.283Z,16.82
2022-10-11T12:25:37.857Z,16.90
2022-10-11T12:28:20.268Z,16.92
2022-10-11T12:30:53.248Z,16.41
2022-10-11T12:33:22.146Z,16.43
2022-10-11T12:35:58.032Z,16.40
2022-10-11T12:38:28.539Z,16.27
2022-10-11T12:41:00.398Z,16.36
2022-10-11T12:43:32.463Z,16.39
2022-10-11T12:46:15.252Z,16.43
2022-10-11T12:48:47.039Z,16.56
2022-10-11T12:51:25.534Z,16.65
2022-10-11T12:54:25.995Z,16.61
2022-10-11T12:57:04.297Z,16.45
2022-10-11T12:59:33.940Z,16.42
2022-10-11T13:02:01.595Z,16.38
2022-10-11T13:04:29.872Z,17.04
2022-10-11T13:07:03.200Z,17.47
2022-10-11T13:09:35.762Z,17.58
2022-10-11T13:12:05.354Z,17.46
2022-10-11T13:14:35.748Z,17.18
2022-10-11T13:17:08.034Z,17.16
2022-10-11T13:19:36.870Z,16.84
2022-10-11T13:22:05.898Z,16.49
2022-10-11T13:24:38.481Z,16.66
2022-10-11T13:27:07.191Z,16.95
2022-10-11T13:29:35.754Z,17.05
2022-10-11T13:32:05.402Z,16.91
2022-10-11T13:34:35.598Z,16.52
2022-10-11T13:37:03.109Z,16.37
2022-10-11T13:39:31.793Z,16.32
2022-10-11T13:42:01.114Z,16.42
2022-10-11T13:44:28.813Z,16.36
2022-10-11T13:46:56.391Z,16.45
2022-10-11T13:49:26.549Z,16.36
2022-10-11T13:51:58.555Z,16.30
2022-10-11T13:54:26.100Z,16.48
2022-10-11T13:56:56.113Z,16.00
2022-10-11T13:59:27.382Z,16.11
2022-10-11T14:01:58.698Z,15.92
2022-10-11T14:04:29.713Z,15.88
2022-10-11T14:06:59.059Z,16.06
2022-10-11T14:09:27.790Z,16.06
2022-10-11T14:11:55.697Z,15.87
2022-10-11T14:14:31.594Z,15.97
2022-10-11T14:17:00.468Z,16.03
2022-10-11T14:19:27.968Z,16.08
2022-10-11T14:21:55.443Z,16.10
2022-10-11T14:24:22.905Z,16.18
2022-10-11T14:26:51.339Z,16.22
2022-10-11T14:29:22.009Z,16.22
2022-10-11T14:31:51.190Z,16.28
2022-10-11T14:34:19.762Z,16.24
2022-10-11T14:36:47.727Z,16.37
2022-10-11T14:39:17.205Z,16.49
2022-10-11T14:41:45.269Z,16.61
2022-10-11T14:44:12.817Z,16.64
2022-10-11T14:46:41.286Z,16.69
2022-10-11T14:49:14.672Z,16.23
2022-10-11T14:51:42.848Z,15.99
2022-10-11T14:54:10.570Z,15.87
2022-10-11T14:56:39.270Z,16.21
2022-10-11T14:59:07.148Z,16.13
2022-10-11T15:01:34.688Z,15.98
2022-10-11T15:04:02.235Z,15.56
2022-10-11T15:06:33.824Z,15.59
2022-10-11T15:09:01.390Z,15.72
2022-10-11T15:11:28.864Z,15.57
2022-10-11T15:13:56.377Z,15.64
2022-10-11T15:16:23.853Z,15.53
2022-10-11T15:18:52.020Z,15.64
2022-10-11T15:21:20.654Z,15.68
2022-10-11T15:23:50.044Z,15.75
2022-10-11T15:26:18.816Z,15.69
2022-10-11T15:28:47.408Z,15.76
2022-10-11T15:31:15.049Z,15.69
2022-10-11T15:33:42.850Z,15.57
2022-10-11T15:36:14.521Z,15.54
2022-10-11T15:38:42.253Z,15.40
2022-10-11T15:41:13.214Z,15.35
2022-10-11T15:43:41.072Z,15.28
2022-10-11T15:46:09.262Z,15.23
2022-10-11T15:48:37.891Z,15.13
2022-10-11T15:51:06.148Z,15.09
2022-10-11T15:53:34.184Z,15.07
2022-10-11T15:56:03.257Z,14.90
2022-10-11T15:58:33.408Z,14.85
2022-10-11T16:01:01.916Z,14.78
2022-10-11T16:03:30.175Z,14.69
2022-10-11T16:06:03.836Z,14.63
2022-10-11T16:08:32.291Z,14.55
2022-10-11T16:11:00.106Z,14.48
2022-10-11T16:13:27.619Z,14.42
2022-10-11T16:15:56.424Z,14.35
2022-10-11T16:18:23.967Z,14.28
2022-10-11T16:20:52.455Z,14.19
2022-10-11T16:23:20.817Z,14.12
2022-10-11T16:25:56.967Z,14.05
2022-10-11T16:28:24.534Z,13.98
2022-10-11T16:30:52.095Z,13.92
2022-10-11T16:33:21.192Z,13.88
2022-10-11T16:35:48.736Z,13.83
2022-10-11T16:38:16.447Z,13.80
2022-10-11T16:40:44.250Z,13.74
2022-10-11T16:43:11.699Z,13.67
2022-10-11T16:45:39.569Z,13.61
2022-10-11T16:48:07.396Z,13.50
2022-10-11T16:50:39.503Z,13.42
2022-10-11T16:53:07.614Z,13.37
2022-10-11T16:55:35.081Z,13.26
2022-10-11T16:58:02.513Z,13.16
2022-10-11T17:00:30.162Z,13.06
2022-10-11T17:02:57.687Z,12.95
2022-10-11T17:05:25.159Z,12.88
2022-10-11T17:07:53.996Z,12.78
2022-10-11T17:10:39.550Z,12.70
2022-10-11T17:13:07.320Z,12.61
2022-10-11T17:15:35.998Z,12.54
2022-10-11T17:18:03.523Z,12.44
2022-10-11T17:20:30.997Z,12.36
2022-10-11T17:23:00.008Z,12.31
2022-10-11T17:25:28.461Z,12.23
2022-10-11T17:27:56.003Z,12.15
2022-10-11T17:30:23.505Z,12.09
2022-10-11T17:32:51.454Z,12.05
2022-10-11T17:35:19.047Z,11.97
2022-10-11T17:37:46.469Z,11.93
2022-10-11T17:40:15.311Z,11.86
2022-10-11T17:42:42.769Z,11.81
2022-10-11T17:45:10.425Z,11.77
2022-10-11T17:47:37.864Z,11.72
2022-10-11T17:50:05.625Z,11.66
2022-10-11T17:52:33.070Z,11.60
2022-10-11T17:55:00.533Z,11.55
2022-10-11T17:57:29.347Z,11.49
2022-10-11T17:59:56.799Z,11.43
2022-10-11T18:02:24.568Z,11.40
2022-10-11T18:04:52.046Z,11.34
2022-10-11T18:07:19.503Z,11.32
2022-10-11T18:09:47.311Z,11.28
2022-10-11T18:12:14.724Z,11.25
2022-10-11T18:14:43.616Z,11.21
2022-10-11T18:17:11.119Z,11.14
2022-10-11T18:19:39.215Z,11.11
2022-10-11T18:22:07.441Z,11.04
2022-10-11T18:24:35.005Z,11.00
2022-10-11T18:27:02.539Z,10.99
2022-10-11T18:29:29.970Z,10.95
2022-10-11T18:31:58.780Z,10.93
2022-10-11T18:34:26.244Z,10.90
2022-10-11T18:36:53.704Z,10.36
2022-10-11T18:39:22.058Z,10.82
2022-10-11T18:41:49.760Z,10.79
2022-10-11T18:44:17.222Z,10.78
2022-10-11T18:46:45.161Z,10.75
2022-10-11T18:49:14.464Z,10.72
2022-10-11T18:51:42.730Z,10.67
2022-10-11T18:54:13.929Z,10.62
2022-10-11T18:56:44.579Z,10.57
2022-10-11T18:59:12.200Z,10.55
2022-10-11T19:01:40.731Z,10.49
2022-10-11T19:04:09.791Z,10.45
2022-10-11T19:06:40.160Z,10.41
2022-10-11T19:09:09.199Z,10.36
2022-10-11T19:11:36.750Z,10.33
2022-10-11T19:14:07.089Z,10.28
2022-10-11T19:16:35.357Z,10.22
2022-10-11T19:19:02.777Z,10.20
2022-10-11T19:21:30.317Z,10.17
2022-10-11T19:23:59.938Z,10.14
2022-10-11T19:26:29.347Z,10.11
2022-10-11T19:28:57.545Z,10.10
2022-10-11T19:31:25.519Z,10.04
2022-10-11T19:33:53.468Z,10.01
2022-10-11T19:36:21.091Z,9.98
2022-10-11T19:38:49.639Z,9.92
2022-10-11T19:41:19.100Z,9.87
2022-10-11T19:43:47.268Z,9.88
2022-10-11T19:46:20.183Z,9.87
2022-10-11T19:48:51.662Z,9.84
2022-10-11T19:51:19.795Z,9.83
2022-10-11T19:53:47.215Z,9.77
2022-10-11T19:56:15.669Z,9.75
2022-10-11T19:58:45.228Z,9.73
2022-10-11T20:01:16.200Z,9.69
2022-10-11T20:03:44.342Z,9.65
2022-10-11T20:06:12.354Z,9.63
2022-10-11T20:08:40.289Z,9.64
2022-10-11T20:11:09.641Z,9.59
2022-10-11T20:13:37.734Z,9.56
2022-10-11T20:16:07.519Z,9.47
2022-10-11T20:18:34.953Z,9.45
2022-10-11T20:21:04.168Z,9.46
2022-10-11T20:23:32.126Z,9.47
2022-10-11T20:26:00.293Z,9.43
2022-10-11T20:28:28.190Z,9.39
2022-10-11T20:30:56.020Z,9.34
2022-10-11T20:33:24.870Z,9.28
2022-10-11T20:36:02.013Z,9.24
2022-10-11T20:38:31.061Z,9.21
2022-10-11T20:40:58.539Z,9.21
2022-10-11T20:43:26.142Z,9.20
2022-10-11T20:46:00.334Z,9.17
2022-10-11T20:48:29.257Z,9.13
2022-10-11T20:50:57.024Z,9.12
2022-10-11T20:53:24.749Z,9.07
2022-10-11T20:55:52.155Z,9.04
2022-10-11T20:58:19.729Z,9.01
2022-10-11T21:00:47.526Z,9.01
2022-10-11T21:03:15.419Z,8.97
2022-10-11T21:05:44.418Z,8.94
2022-10-11T21:08:11.965Z,8.91
2022-10-11T21:10:39.852Z,8.88
2022-10-11T21:13:07.325Z,8.87
2022-10-11T21:15:34.963Z,8.84
2022-10-11T21:18:02.410Z,8.80
2022-10-11T21:20:29.955Z,8.77
2022-10-11T21:22:58.797Z,8.74
2022-10-11T21:25:26.271Z,8.72
2022-10-11T21:27:53.720Z,8.68
2022-10-11T21:30:21.170Z,8.68
2022-10-11T21:32:48.591Z,8.65
2022-10-11T21:35:16.082Z,8.62
2022-10-11T21:37:44.078Z,8.62
2022-10-11T21:40:12.892Z,8.61
2022-10-11T21:42:40.654Z,8.60
2022-10-11T21:45:08.439Z,8.58
2022-10-11T21:47:39.016Z,8.55
2022-10-11T21:50:09.165Z,8.50
2022-10-11T21:52:37.029Z,8.47
2022-10-11T21:55:05.036Z,8.44
2022-10-11T21:57:33.843Z,8.39
2022-10-11T22:00:01.275Z,8.36
2022-10-11T22:02:28.748Z,8.34
2022-10-11T22:04:56.473Z,8.32
2022-10-11T22:07:24.223Z,8.29
2022-10-11T22:09:51.677Z,8.26
2022-10-11T22:12:19.140Z,8.27
2022-10-11T22:14:48.099Z,8.26
2022-10-11T22:17:15.620Z,8.25
2022-10-11T22:19:43.055Z,8.24
2022-10-11T22:22:10.536Z,8.20
2022-10-11T22:24:37.975Z,8.20
2022-10-11T22:27:05.443Z,8.20
2022-10-11T22:29:34.358Z,8.17
2022-10-11T22:32:03.351Z,8.12
2022-10-11T22:34:31.385Z,8.10
2022-10-11T22:36:58.829Z,8.09
2022-10-11T22:39:26.563Z,8.10
2022-10-11T22:41:54.207Z,8.11
2022-10-11T22:44:22.103Z,8.12
2022-10-11T22:46:49.657Z,8.13
2022-10-11T22:49:18.497Z,8.12
2022-10-11T22:51:45.975Z,8.13
2022-10-11T22:54:13.487Z,8.04
2022-10-11T22:56:40.912Z,8.03
2022-10-11T22:59:08.441Z,8.07
2022-10-11T23:01:35.887Z,8.09
2022-10-11T23:04:03.595Z,8.06
2022-10-11T23:06:32.609Z,8.01
2022-10-11T23:09:00.110Z,7.93
2022-10-11T23:11:27.573Z,7.95
2022-10-11T23:13:55.049Z,7.96
2022-10-11T23:16:22.437Z,7.94
2022-10-11T23:18:52.522Z,7.93
2022-10-11T23:21:20.615Z,7.90
2022-10-11T23:23:49.398Z,7.86
2022-10-11T23:26:17.250Z,7.87
2022-10-11T23:28:44.986Z,7.85
2022-10-11T23:31:13.627Z,7.83
2022-10-11T23:33:41.148Z,7.76
2022-10-11T23:36:14.001Z,7.73
2022-10-11T23:38:41.435Z,7.68
2022-10-11T23:41:10.430Z,7.67
2022-10-11T23:43:37.918Z,7.66
2022-10-11T23:46:05.419Z,7.66
2022-10-11T23:48:32.868Z,7.63
2022-10-11T23:51:00.299Z,7.60
2022-10-11T23:53:27.838Z,7.60
2022-10-11T23:55:55.327Z,7.60
2022-10-11T23:58:24.479Z,7.58
